createdAt,value
2019-06-10T00:00:21.847Z,46.40
2019-06-10T00:02:52.408Z,46.50
2019-06-10T00:05:22.646Z,46.50
2019-06-10T00:07:52.868Z,46.60
2019-06-10T00:10:23.328Z,46.60
2019-06-10T00:12:55.371Z,47.00
2019-06-10T00:15:25.957Z,47.10
2019-06-10T00:18:20.834Z,47.10
2019-06-10T00:20:30.455Z,47.00
2019-06-10T00:23:02.508Z,47.00
2019-06-10T00:25:32.108Z,47.10
2019-06-10T00:28:05.668Z,47.20
2019-06-10T00:30:35.431Z,47.30
2019-06-10T00:33:06.515Z,47.30
2019-06-10T00:35:38.115Z,47.30
2019-06-10T00:38:09.328Z,47.30
2019-06-10T00:40:41.519Z,47.30
2019-06-10T00:43:13.575Z,47.20
2019-06-10T00:45:44.120Z,47.20
2019-06-10T00:48:25.234Z,47.50
2019-06-10T00:50:46.599Z,47.50
2019-06-10T00:53:16.887Z,47.70
2019-06-10T00:55:47.100Z,47.60
2019-06-10T00:58:17.306Z,47.60
2019-06-10T01:00:47.833Z,47.60
2019-06-10T01:03:20.732Z,47.80
2019-06-10T01:05:50.933Z,48.20
2019-06-10T01:08:21.642Z,48.30
2019-06-10T01:10:52.385Z,48.10
2019-06-10T01:13:22.712Z,48.50
2019-06-10T01:15:53.009Z,48.30
2019-06-10T01:18:34.443Z,48.30
2019-06-10T01:20:55.253Z,48.40
2019-06-10T01:23:25.519Z,48.50
2019-06-10T01:25:55.769Z,48.60
2019-06-10T01:28:26.112Z,48.40
2019-06-10T01:30:56.315Z,48.40
2019-06-10T01:33:26.617Z,48.60
2019-06-10T01:35:56.857Z,48.70
2019-06-10T01:38:27.166Z,48.80
2019-06-10T01:40:57.406Z,48.70
2019-06-10T01:43:27.723Z,48.80
2019-06-10T01:45:58.150Z,49.00
2019-06-10T01:48:40.525Z,48.90
2019-06-10T01:51:01.817Z,48.90
2019-06-10T01:53:32.345Z,49.00
2019-06-10T01:56:02.873Z,49.10
2019-06-10T01:58:33.238Z,49.10
2019-06-10T02:01:08.438Z,49.30
2019-06-10T02:03:41.506Z,49.30
2019-06-10T02:06:16.049Z,49.20
2019-06-10T02:08:43.987Z,49.10
2019-06-10T02:11:17.316Z,49.10
2019-06-10T02:13:47.423Z,49.30
2019-06-10T02:16:19.021Z,49.30
2019-06-10T02:19:00.149Z,49.50
2019-06-10T02:21:24.315Z,49.50
2019-06-10T02:23:53.634Z,49.40
2019-06-10T02:26:23.903Z,49.40
2019-06-10T02:28:54.122Z,49.50
2019-06-10T02:31:30.017Z,49.60
2019-06-10T02:33:56.350Z,49.70
2019-06-10T02:36:31.042Z,49.80
2019-06-10T02:38:58.653Z,49.90
2019-06-10T02:41:32.169Z,49.80
2019-06-10T02:44:03.969Z,49.90
2019-06-10T02:46:36.001Z,50.00
2019-06-10T02:49:20.714Z,49.90
2019-06-10T02:51:37.819Z,49.80
2019-06-10T02:54:08.061Z,50.00
2019-06-10T02:56:38.309Z,50.20
2019-06-10T02:59:08.592Z,50.30
2019-06-10T03:01:43.575Z,50.40
2019-06-10T03:04:13.757Z,50.30
2019-06-10T03:06:44.807Z,50.60
2019-06-10T03:09:16.529Z,50.50
2019-06-10T03:11:47.346Z,50.40
2019-06-10T03:14:17.767Z,50.40
2019-06-10T03:16:52.784Z,50.70
2019-06-10T03:19:39.667Z,50.60
2019-06-10T03:21:54.468Z,50.70
2019-06-10T03:24:25.337Z,50.80
2019-06-10T03:26:55.796Z,50.80
2019-06-10T03:29:26.877Z,51.00
2019-06-10T03:31:58.089Z,50.90
2019-06-10T03:34:36.295Z,51.10
2019-06-10T03:37:02.326Z,51.00
2019-06-10T03:39:32.363Z,51.30
2019-06-10T03:42:02.742Z,51.30
2019-06-10T03:44:33.114Z,51.20
2019-06-10T03:47:03.418Z,51.40
2019-06-10T03:49:48.744Z,51.20
2019-06-10T03:52:05.641Z,51.20
2019-06-10T03:54:35.918Z,51.10
2019-06-10T03:57:06.247Z,51.20
2019-06-10T03:59:36.569Z,51.50
2019-06-10T04:02:06.899Z,51.40
2019-06-10T04:04:37.347Z,51.50
2019-06-10T04:07:07.640Z,51.70
2019-06-10T04:09:38.104Z,51.60
2019-06-10T04:12:08.399Z,51.60
2019-06-10T04:14:38.655Z,51.50
2019-06-10T04:17:08.979Z,51.60
2019-06-10T04:19:39.182Z,51.90
2019-06-10T04:22:09.632Z,51.80
2019-06-10T04:24:39.998Z,51.70
2019-06-10T04:27:12.279Z,51.80
2019-06-10T04:29:42.289Z,52.00
2019-06-10T04:32:12.561Z,51.90
2019-06-10T04:34:43.428Z,51.80
2019-06-10T04:37:13.715Z,51.70
2019-06-10T04:39:43.996Z,51.70
2019-06-10T04:42:14.324Z,51.90
2019-06-10T04:44:44.687Z,52.00
2019-06-10T04:47:15.013Z,52.00
2019-06-10T04:49:45.231Z,52.00
2019-06-10T04:52:15.736Z,52.10
2019-06-10T04:54:46.070Z,51.90
2019-06-10T04:57:16.404Z,52.00
2019-06-10T04:59:46.673Z,51.90
2019-06-10T05:02:17.072Z,52.00
2019-06-10T05:04:47.369Z,52.00
2019-06-10T05:07:18.919Z,52.30
2019-06-10T05:09:49.328Z,52.60
2019-06-10T05:12:22.342Z,52.70
2019-06-10T05:14:52.664Z,52.60
2019-06-10T05:17:26.121Z,52.50
2019-06-10T05:19:54.987Z,53.30
2019-06-10T05:22:26.621Z,52.60
2019-06-10T05:24:57.478Z,52.70
2019-06-10T05:27:28.597Z,52.70
2019-06-10T05:29:58.910Z,52.80
2019-06-10T05:32:30.475Z,52.70
2019-06-10T05:35:03.519Z,52.70
2019-06-10T05:37:34.415Z,52.60
2019-06-10T05:40:12.582Z,53.10
2019-06-10T05:42:42.723Z,52.80
2019-06-10T05:45:13.029Z,52.80
2019-06-10T05:47:43.387Z,53.00
2019-06-10T05:50:13.699Z,52.90
2019-06-10T05:52:44.017Z,52.90
2019-06-10T05:55:14.350Z,53.00
2019-06-10T05:57:44.676Z,53.20
2019-06-10T06:00:15.219Z,53.00
2019-06-10T06:02:45.411Z,53.20
2019-06-10T06:05:15.752Z,53.10
2019-06-10T06:07:58.916Z,53.10
2019-06-10T06:10:19.160Z,53.40
2019-06-10T06:12:49.471Z,53.50
2019-06-10T06:15:21.984Z,53.30
2019-06-10T06:18:06.096Z,53.30
2019-06-10T06:20:23.614Z,53.60
2019-06-10T06:22:53.828Z,53.60
2019-06-10T06:25:24.305Z,53.70
2019-06-10T06:27:54.557Z,53.90
2019-06-10T06:30:26.091Z,53.90
2019-06-10T06:32:56.674Z,54.10
2019-06-10T06:35:26.910Z,54.20
2019-06-10T06:37:57.211Z,54.20
2019-06-10T06:40:27.597Z,54.40
2019-06-10T06:42:57.882Z,54.40
2019-06-10T06:45:28.104Z,54.50
2019-06-10T06:47:58.329Z,54.70
2019-06-10T06:50:28.655Z,54.60
2019-06-10T06:53:19.753Z,54.60
2019-06-10T06:55:33.762Z,55.00
2019-06-10T06:58:04.133Z,54.80
2019-06-10T07:00:52.969Z,54.80
2019-06-10T07:03:07.456Z,54.90
2019-06-10T07:05:38.966Z,55.00
2019-06-10T07:08:09.874Z,54.70
2019-06-10T07:10:41.444Z,54.90
2019-06-10T07:13:12.905Z,54.80
2019-06-10T07:15:47.053Z,55.00
2019-06-10T07:18:17.722Z,55.00
2019-06-10T07:20:48.129Z,54.80
2019-06-10T07:23:18.320Z,55.50
2019-06-10T07:25:48.706Z,55.00
2019-06-10T07:28:19.093Z,55.00
2019-06-10T07:30:52.788Z,54.80
2019-06-10T07:33:22.687Z,54.60
2019-06-10T07:35:56.442Z,54.70
2019-06-10T07:38:26.278Z,54.70
2019-06-10T07:40:56.965Z,54.60
2019-06-10T07:43:27.260Z,54.30
2019-06-10T07:45:57.520Z,54.40
2019-06-10T07:48:27.941Z,54.40
2019-06-10T07:50:58.288Z,54.40
2019-06-10T07:53:28.652Z,54.70
2019-06-10T07:55:58.899Z,54.80
2019-06-10T07:58:29.146Z,54.90
2019-06-10T08:00:59.442Z,55.20
2019-06-10T08:03:29.771Z,55.10
2019-06-10T08:06:00.203Z,55.00
2019-06-10T08:08:32.943Z,55.00
2019-06-10T08:11:03.730Z,55.30
2019-06-10T08:13:35.186Z,55.20
2019-06-10T08:16:05.517Z,55.10
2019-06-10T08:18:41.838Z,55.30
2019-06-10T08:21:07.639Z,55.30
2019-06-10T08:23:38.582Z,55.40
2019-06-10T08:26:08.945Z,55.30
2019-06-10T08:28:39.662Z,55.20
2019-06-10T08:31:12.166Z,55.10
2019-06-10T08:33:44.304Z,55.30
2019-06-10T08:36:13.856Z,55.30
2019-06-10T08:38:46.830Z,55.30
2019-06-10T08:41:16.088Z,55.30
2019-06-10T08:43:48.412Z,55.10
2019-06-10T08:46:18.302Z,55.10
2019-06-10T08:48:49.606Z,55.20
2019-06-10T08:51:19.899Z,55.10
2019-06-10T08:53:52.922Z,55.20
2019-06-10T08:56:22.522Z,55.10
2019-06-10T08:58:54.075Z,55.20
2019-06-10T09:01:24.548Z,55.00
2019-06-10T09:03:54.818Z,55.20
2019-06-10T09:06:25.033Z,55.20
2019-06-10T09:08:55.507Z,55.20
2019-06-10T09:11:25.856Z,55.30
2019-06-10T09:13:56.079Z,55.30
2019-06-10T09:16:26.339Z,55.40
2019-06-10T09:18:56.567Z,55.70
2019-06-10T09:21:26.773Z,55.60
2019-06-10T09:24:00.464Z,56.20
2019-06-10T09:26:33.487Z,55.60
2019-06-10T09:29:03.008Z,55.60
2019-06-10T09:31:33.474Z,55.60
2019-06-10T09:34:04.126Z,55.80
2019-06-10T09:36:34.372Z,55.60
2019-06-10T09:39:05.423Z,55.70
2019-06-10T09:41:40.201Z,55.30
2019-06-10T09:44:07.618Z,55.50
2019-06-10T09:46:37.835Z,55.70
2019-06-10T09:49:08.053Z,55.90
2019-06-10T09:51:38.269Z,55.70
2019-06-10T09:54:08.547Z,55.30
2019-06-10T09:56:38.750Z,55.20
2019-06-10T09:59:12.499Z,55.20
2019-06-10T10:01:47.009Z,55.00
2019-06-10T10:04:14.749Z,55.00
2019-06-10T10:06:49.085Z,54.90
2019-06-10T10:09:16.880Z,54.80
2019-06-10T10:11:48.907Z,54.80
2019-06-10T10:14:19.153Z,54.80
2019-06-10T10:16:54.954Z,54.80
2019-06-10T10:19:23.158Z,54.60
2019-06-10T10:21:58.178Z,54.60
2019-06-10T10:24:25.456Z,54.70
2019-06-10T10:26:58.007Z,54.70
2019-06-10T10:29:27.720Z,54.70
2019-06-10T10:31:57.985Z,54.50
2019-06-10T10:34:28.202Z,54.50
2019-06-10T10:36:59.364Z,54.60
2019-06-10T10:39:29.591Z,54.50
2019-06-10T10:41:59.771Z,54.70
2019-06-10T10:44:30.080Z,54.40
2019-06-10T10:47:00.289Z,54.00
2019-06-10T10:49:30.605Z,54.00
2019-06-10T10:52:02.668Z,53.70
2019-06-10T10:54:36.476Z,53.50
2019-06-10T10:57:04.819Z,53.40
2019-06-10T10:59:35.118Z,53.30
2019-06-10T11:02:05.346Z,52.90
2019-06-10T11:04:35.747Z,53.10
2019-06-10T11:07:05.958Z,52.80
2019-06-10T11:09:36.199Z,53.00
2019-06-10T11:12:06.460Z,53.00
2019-06-10T11:14:36.838Z,52.80
2019-06-10T11:17:07.175Z,52.60
2019-06-10T11:19:37.478Z,52.50
2019-06-10T11:22:07.747Z,52.40
2019-06-10T11:24:42.319Z,52.10
2019-06-10T11:27:12.138Z,52.00
2019-06-10T11:29:42.329Z,52.20
2019-06-10T11:32:12.705Z,52.30
2019-06-10T11:34:43.011Z,52.40
2019-06-10T11:37:13.348Z,52.50
2019-06-10T11:39:43.718Z,52.50
2019-06-10T11:42:13.981Z,53.10
2019-06-10T11:44:44.158Z,53.30
2019-06-10T11:47:14.465Z,53.30
2019-06-10T11:49:44.757Z,53.50
2019-06-10T11:52:15.222Z,53.60
2019-06-10T11:54:55.713Z,53.50
2019-06-10T11:57:18.313Z,53.60
2019-06-10T11:59:48.596Z,53.30
2019-06-10T12:02:18.881Z,53.50
2019-06-10T12:04:49.084Z,53.00
2019-06-10T12:07:19.324Z,52.50
2019-06-10T12:09:51.541Z,52.30
2019-06-10T12:12:22.099Z,52.50
2019-06-10T12:14:55.281Z,51.80
2019-06-10T12:17:41.023Z,51.90
2019-06-10T12:19:59.387Z,51.60
2019-06-10T12:22:28.123Z,51.20
2019-06-10T12:25:24.921Z,51.30
2019-06-10T12:27:32.423Z,51.00
2019-06-10T12:30:04.982Z,50.80
2019-06-10T12:32:34.485Z,50.30
2019-06-10T12:35:06.387Z,50.20
2019-06-10T12:37:36.909Z,50.20
2019-06-10T12:40:14.009Z,49.50
2019-06-10T12:42:44.255Z,50.00
2019-06-10T12:45:14.607Z,49.80
2019-06-10T12:47:44.933Z,49.90
2019-06-10T12:50:15.198Z,49.90
2019-06-10T12:52:45.418Z,50.00
2019-06-10T12:55:15.688Z,50.00
2019-06-10T12:57:45.903Z,49.80
2019-06-10T13:00:22.674Z,50.00
2019-06-10T13:02:48.650Z,50.10
2019-06-10T13:05:18.927Z,49.60
2019-06-10T13:07:49.197Z,49.60
2019-06-10T13:10:35.491Z,49.60
2019-06-10T13:13:08.744Z,49.60
2019-06-10T13:15:37.814Z,49.30
2019-06-10T13:18:13.549Z,49.50
2019-06-10T13:20:40.011Z,49.60
2019-06-10T13:23:20.358Z,49.70
2019-06-10T13:25:51.252Z,49.60
2019-06-10T13:28:14.022Z,50.50
2019-06-10T13:30:44.355Z,49.90
2019-06-10T13:33:15.522Z,50.10
2019-06-10T13:35:45.751Z,50.10
2019-06-10T13:38:15.980Z,50.20
2019-06-10T13:40:46.378Z,50.20
2019-06-10T13:43:16.583Z,50.10
2019-06-10T13:45:46.887Z,50.20
2019-06-10T13:48:17.215Z,51.00
2019-06-10T13:50:47.457Z,50.50
2019-06-10T13:53:17.672Z,50.40
2019-06-10T13:55:47.898Z,51.00
2019-06-10T13:58:18.096Z,50.40
2019-06-10T14:00:48.300Z,50.20
2019-06-10T14:03:18.487Z,50.30
2019-06-10T14:05:48.812Z,50.60
2019-06-10T14:08:19.064Z,50.70
2019-06-10T14:10:49.293Z,50.90
2019-06-10T14:13:23.238Z,50.80
2019-06-10T14:15:53.405Z,50.70
2019-06-10T14:18:24.259Z,50.60
2019-06-10T14:20:54.505Z,50.60
2019-06-10T14:23:24.693Z,51.00
2019-06-10T14:25:54.928Z,51.30
2019-06-10T14:28:39.772Z,51.20
2019-06-10T14:30:57.127Z,51.20
2019-06-10T14:33:27.348Z,51.40
2019-06-10T14:35:57.566Z,51.30
2019-06-10T14:38:27.832Z,51.20
2019-06-10T14:40:58.135Z,51.40
2019-06-10T14:43:28.329Z,51.40
2019-06-10T14:45:58.574Z,51.40
2019-06-10T14:48:28.899Z,51.30
2019-06-10T14:50:59.110Z,51.20
2019-06-10T14:53:29.319Z,51.30
2019-06-10T14:55:59.572Z,51.30
2019-06-10T14:58:29.790Z,51.40
2019-06-10T15:00:59.995Z,51.50
2019-06-10T15:03:32.796Z,51.60
2019-06-10T15:06:03.393Z,51.40
2019-06-10T15:08:34.752Z,51.40
2019-06-10T15:11:04.946Z,51.70
2019-06-10T15:13:35.168Z,51.70
2019-06-10T15:16:05.524Z,51.70
2019-06-10T15:18:35.720Z,51.60
2019-06-10T15:21:06.906Z,51.70
2019-06-10T15:23:37.143Z,51.80
2019-06-10T15:26:07.971Z,51.90
2019-06-10T15:28:38.231Z,51.70
2019-06-10T15:31:08.440Z,52.00
2019-06-10T15:33:38.679Z,52.00
2019-06-10T15:36:09.144Z,51.90
2019-06-10T15:38:40.256Z,51.80
2019-06-10T15:41:15.034Z,51.90
2019-06-10T15:43:42.466Z,51.70
2019-06-10T15:46:14.506Z,51.80
2019-06-10T15:48:44.725Z,51.80
2019-06-10T15:51:17.466Z,51.60
2019-06-10T15:53:46.922Z,51.90
2019-06-10T15:56:35.396Z,51.90
2019-06-10T15:58:49.123Z,51.80
2019-06-10T16:01:22.641Z,51.90
2019-06-10T16:03:52.852Z,51.90
2019-06-10T16:06:24.367Z,51.90
2019-06-10T16:08:54.699Z,52.00
2019-06-10T16:11:27.028Z,51.90
2019-06-10T16:13:56.931Z,52.30
2019-06-10T16:16:27.137Z,52.20
2019-06-10T16:18:57.387Z,52.20
2019-06-10T16:21:27.649Z,52.20
2019-06-10T16:23:57.867Z,52.10
2019-06-10T16:26:28.064Z,51.90
2019-06-10T16:28:58.306Z,52.00
2019-06-10T16:31:28.496Z,52.00
2019-06-10T16:33:58.715Z,52.10
2019-06-10T16:36:28.917Z,52.10
2019-06-10T16:38:59.153Z,52.00
2019-06-10T16:41:29.346Z,52.10
2019-06-10T16:43:59.587Z,52.10
2019-06-10T16:46:32.046Z,52.00
2019-06-10T16:49:03.250Z,51.90
2019-06-10T16:51:33.645Z,52.10
2019-06-10T16:54:03.883Z,52.00
2019-06-10T16:56:34.081Z,52.30
2019-06-10T16:59:04.462Z,52.20
2019-06-10T17:01:34.726Z,52.40
2019-06-10T17:04:08.034Z,52.40
2019-06-10T17:06:38.236Z,52.80
2019-06-10T17:09:09.314Z,52.20
2019-06-10T17:11:39.581Z,52.10
2019-06-10T17:14:12.382Z,52.10
2019-06-10T17:16:41.880Z,52.00
2019-06-10T17:19:14.253Z,51.90
2019-06-10T17:21:44.075Z,52.00
2019-06-10T17:24:14.303Z,52.00
2019-06-10T17:26:44.596Z,52.10
2019-06-10T17:29:15.055Z,52.00
2019-06-10T17:31:45.379Z,52.30
2019-06-10T17:34:15.596Z,52.30
2019-06-10T17:36:45.928Z,52.40
2019-06-10T17:39:17.494Z,52.40
2019-06-10T17:41:47.972Z,52.40
2019-06-10T17:44:18.304Z,52.50
2019-06-10T17:46:48.589Z,52.50
2019-06-10T17:49:18.952Z,52.50
2019-06-10T17:51:49.189Z,52.40
2019-06-10T17:54:19.446Z,52.50
2019-06-10T17:56:49.667Z,52.40
2019-06-10T17:59:22.063Z,52.30
2019-06-10T18:02:02.858Z,52.30
2019-06-10T18:04:33.708Z,52.50
2019-06-10T18:07:03.976Z,52.40
2019-06-10T18:09:36.908Z,52.40
2019-06-10T18:12:06.186Z,52.50
2019-06-10T18:14:36.441Z,52.50
2019-06-10T18:17:06.680Z,52.60
2019-06-10T18:19:37.554Z,52.70
2019-06-10T18:22:08.135Z,52.60
2019-06-10T18:24:38.370Z,52.50
2019-06-10T18:27:08.972Z,52.50
2019-06-10T18:29:39.993Z,52.50
2019-06-10T18:32:12.494Z,52.50
2019-06-10T18:34:45.763Z,52.40
2019-06-10T18:37:16.023Z,52.20
2019-06-10T18:39:46.237Z,52.40
2019-06-10T18:42:16.477Z,52.40
2019-06-10T18:44:46.689Z,52.30
2019-06-10T18:47:16.913Z,52.30
2019-06-10T18:49:47.136Z,52.30
2019-06-10T18:52:17.433Z,52.30
2019-06-10T18:54:47.864Z,52.40
2019-06-10T18:57:18.099Z,52.50
2019-06-10T18:59:48.431Z,52.50
2019-06-10T19:02:19.852Z,52.50
2019-06-10T19:04:50.155Z,52.50
2019-06-10T19:07:22.559Z,52.50
2019-06-10T19:09:52.899Z,52.50
2019-06-10T19:12:23.402Z,52.60
2019-06-10T19:14:53.819Z,52.60
2019-06-10T19:17:24.216Z,52.70
2019-06-10T19:19:54.756Z,52.70
2019-06-10T19:22:25.170Z,52.70
2019-06-10T19:24:55.596Z,52.60
2019-06-10T19:27:26.451Z,52.60
2019-06-10T19:29:56.797Z,52.70
2019-06-10T19:32:27.112Z,52.60
2019-06-10T19:34:58.409Z,52.60
2019-06-10T19:37:28.708Z,52.70
2019-06-10T19:39:59.060Z,52.80
2019-06-10T19:42:29.422Z,52.80
2019-06-10T19:44:59.680Z,52.90
2019-06-10T19:47:32.639Z,52.80
2019-06-10T19:50:02.986Z,52.70
2019-06-10T19:52:35.116Z,52.90
2019-06-10T19:55:07.746Z,52.80
2019-06-10T19:57:39.374Z,52.90
2019-06-10T20:00:12.418Z,52.80
2019-06-10T20:02:46.514Z,52.80
2019-06-10T20:05:14.130Z,52.80
2019-06-10T20:07:50.071Z,52.80
2019-06-10T20:10:16.477Z,52.70
2019-06-10T20:12:46.804Z,52.70
2019-06-10T20:15:26.265Z,52.70
2019-06-10T20:17:56.479Z,52.80
2019-06-10T20:20:26.683Z,52.80
2019-06-10T20:22:57.608Z,52.80
2019-06-10T20:25:27.993Z,52.90
2019-06-10T20:27:58.221Z,52.80
2019-06-10T20:30:29.239Z,52.90
2019-06-10T20:32:59.657Z,52.80
2019-06-10T20:35:32.475Z,52.90
2019-06-10T20:38:04.622Z,53.00
2019-06-10T20:40:35.395Z,53.00
2019-06-10T20:43:05.702Z,53.00
2019-06-10T20:45:35.884Z,53.10
2019-06-10T20:48:06.110Z,53.00
2019-06-10T20:50:36.300Z,53.00
2019-06-10T20:53:14.772Z,53.20
2019-06-10T20:55:43.348Z,53.00
2019-06-10T20:58:12.293Z,53.10
2019-06-10T21:00:49.043Z,53.20
2019-06-10T21:03:14.310Z,53.30
2019-06-10T21:05:50.139Z,53.30
2019-06-10T21:08:22.532Z,53.30
2019-06-10T21:10:54.592Z,53.30
2019-06-10T21:13:24.302Z,53.30
2019-06-10T21:15:55.586Z,53.40
2019-06-10T21:18:26.553Z,53.20
2019-06-10T21:20:56.785Z,53.40
2019-06-10T21:23:26.976Z,53.40
2019-06-10T21:25:57.200Z,53.50
2019-06-10T21:28:27.464Z,53.60
2019-06-10T21:30:58.780Z,53.60
2019-06-10T21:33:29.355Z,53.60
2019-06-10T21:35:59.570Z,53.60
2019-06-10T21:38:32.157Z,53.80
2019-06-10T21:41:03.270Z,53.80
2019-06-10T21:43:34.630Z,53.70
2019-06-10T21:46:04.864Z,54.10
2019-06-10T21:48:35.052Z,54.00
2019-06-10T21:51:05.335Z,54.00
2019-06-10T21:53:35.529Z,54.00
2019-06-10T21:56:05.744Z,54.10
2019-06-10T21:58:35.956Z,54.70
2019-06-10T22:01:13.009Z,54.20
2019-06-10T22:03:38.132Z,54.10
2019-06-10T22:06:08.353Z,54.10
2019-06-10T22:08:38.551Z,54.30
2019-06-10T22:11:08.748Z,54.30
2019-06-10T22:13:38.951Z,54.30
2019-06-10T22:16:09.172Z,54.40
2019-06-10T22:18:39.366Z,54.40
2019-06-10T22:21:09.584Z,54.40
2019-06-10T22:23:39.771Z,54.40
2019-06-10T22:26:12.934Z,54.60
2019-06-10T22:28:43.289Z,54.50
2019-06-10T22:31:22.303Z,54.40
2019-06-10T22:33:47.240Z,54.40
2019-06-10T22:36:17.461Z,54.40
2019-06-10T22:38:47.902Z,54.50
2019-06-10T22:41:18.210Z,54.50
2019-06-10T22:43:49.367Z,54.50
2019-06-10T22:46:19.712Z,54.50
2019-06-10T22:48:51.056Z,54.50
2019-06-10T22:51:22.679Z,54.60
2019-06-10T22:53:56.481Z,54.60
2019-06-10T22:56:25.075Z,54.70
2019-06-10T22:58:55.971Z,54.70
2019-06-10T23:01:33.859Z,54.70
2019-06-10T23:04:00.384Z,54.60
2019-06-10T23:06:31.017Z,54.80
2019-06-10T23:09:02.616Z,54.80
2019-06-10T23:11:34.581Z,54.70
2019-06-10T23:14:05.845Z,54.80
2019-06-10T23:16:36.052Z,54.80
2019-06-10T23:19:06.241Z,54.90
2019-06-10T23:21:36.459Z,54.90
2019-06-10T23:24:06.661Z,54.90
2019-06-10T23:26:36.870Z,54.90
2019-06-10T23:29:07.067Z,54.90
2019-06-10T23:31:51.486Z,54.80
2019-06-10T23:34:09.173Z,54.90
2019-06-10T23:36:39.389Z,55.10
2019-06-10T23:39:09.580Z,55.00
2019-06-10T23:41:39.796Z,55.10
2019-06-10T23:44:12.116Z,55.20
2019-06-10T23:46:42.587Z,55.20
2019-06-10T23:49:12.911Z,55.20
2019-06-10T23:51:43.142Z,55.20
2019-06-10T23:54:13.341Z,55.40
2019-06-10T23:56:43.550Z,55.40
2019-06-10T23:59:13.754Z,55.50
